sensor_id;sensor_type;location;lat;lon;timestamp;temperature;humidity
29663;DHT22;16578;53.266;7.920;2023-07-16T00:01:27;21.90;74.00
29663;DHT22;16578;53.266;7.920;2023-07-16T00:03:53;21.90;74.10
29663;DHT22;16578;53.266;7.920;2023-07-16T00:06:18;21.90;74.20
29663;DHT22;16578;53.266;7.920;2023-07-16T00:08:44;21.90;74.30
29663;DHT22;16578;53.266;7.920;2023-07-16T00:11:09;21.90;74.30
29663;DHT22;16578;53.266;7.920;2023-07-16T00:13:35;21.90;74.30
29663;DHT22;16578;53.266;7.920;2023-07-16T00:16:00;21.90;74.40
29663;DHT22;16578;53.266;7.920;2023-07-16T00:18:26;21.90;74.50
29663;DHT22;16578;53.266;7.920;2023-07-16T00:20:51;21.90;74.50
29663;DHT22;16578;53.266;7.920;2023-07-16T00:23:17;21.90;74.40
29663;DHT22;16578;53.266;7.920;2023-07-16T00:25:42;21.90;74.30
29663;DHT22;16578;53.266;7.920;2023-07-16T00:28:08;21.90;74.30
29663;DHT22;16578;53.266;7.920;2023-07-16T00:30:33;21.90;74.30
29663;DHT22;16578;53.266;7.920;2023-07-16T00:32:59;21.90;74.30
29663;DHT22;16578;53.266;7.920;2023-07-16T00:35:24;21.90;74.30
29663;DHT22;16578;53.266;7.920;2023-07-16T00:37:50;21.90;74.30
29663;DHT22;16578;53.266;7.920;2023-07-16T00:40:15;21.90;74.30
29663;DHT22;16578;53.266;7.920;2023-07-16T00:42:41;21.90;74.30
29663;DHT22;16578;53.266;7.920;2023-07-16T00:45:11;21.90;74.30
29663;DHT22;16578;53.266;7.920;2023-07-16T00:47:38;21.90;74.40
29663;DHT22;16578;53.266;7.920;2023-07-16T00:50:03;21.90;74.40
29663;DHT22;16578;53.266;7.920;2023-07-16T00:52:29;21.90;74.40
29663;DHT22;16578;53.266;7.920;2023-07-16T00:54:55;21.90;74.40
29663;DHT22;16578;53.266;7.920;2023-07-16T00:57:20;21.80;74.30
29663;DHT22;16578;53.266;7.920;2023-07-16T00:59:46;21.80;74.30
29663;DHT22;16578;53.266;7.920;2023-07-16T01:02:11;21.90;74.30
29663;DHT22;16578;53.266;7.920;2023-07-16T01:04:37;21.80;74.30
29663;DHT22;16578;53.266;7.920;2023-07-16T01:07:05;21.90;74.40
29663;DHT22;16578;53.266;7.920;2023-07-16T01:09:32;21.80;75.20
29663;DHT22;16578;53.266;7.920;2023-07-16T01:12:00;21.80;74.20
29663;DHT22;16578;53.266;7.920;2023-07-16T01:14:26;21.80;74.00
29663;DHT22;16578;53.266;7.920;2023-07-16T01:16:52;21.80;73.90
29663;DHT22;16578;53.266;7.920;2023-07-16T01:19:24;21.80;73.80
29663;DHT22;16578;53.266;7.920;2023-07-16T01:21:59;21.80;73.70
29663;DHT22;16578;53.266;7.920;2023-07-16T01:24:53;21.80;73.60
29663;DHT22;16578;53.266;7.920;2023-07-16T01:27:59;21.70;73.70
29663;DHT22;16578;53.266;7.920;2023-07-16T01:30:31;21.70;73.80
29663;DHT22;16578;53.266;7.920;2023-07-16T01:32:57;21.60;73.50
29663;DHT22;16578;53.266;7.920;2023-07-16T01:35:23;21.60;73.40
29663;DHT22;16578;53.266;7.920;2023-07-16T01:37:49;21.60;73.50
29663;DHT22;16578;53.266;7.920;2023-07-16T01:40:15;21.50;73.60
29663;DHT22;16578;53.266;7.920;2023-07-16T01:42:40;21.50;73.70
29663;DHT22;16578;53.266;7.920;2023-07-16T01:45:06;21.50;73.70
29663;DHT22;16578;53.266;7.920;2023-07-16T01:47:52;21.50;73.90
29663;DHT22;16578;53.266;7.920;2023-07-16T01:50:20;21.40;73.90
29663;DHT22;16578;53.266;7.920;2023-07-16T01:52:46;21.40;73.90
29663;DHT22;16578;53.266;7.920;2023-07-16T01:55:11;21.40;74.00
29663;DHT22;16578;53.266;7.920;2023-07-16T01:57:37;21.30;73.90
29663;DHT22;16578;53.266;7.920;2023-07-16T02:00:02;21.30;74.00
29663;DHT22;16578;53.266;7.920;2023-07-16T02:02:28;21.30;74.10
29663;DHT22;16578;53.266;7.920;2023-07-16T02:04:53;21.30;74.30
29663;DHT22;16578;53.266;7.920;2023-07-16T02:07:19;21.30;74.40
29663;DHT22;16578;53.266;7.920;2023-07-16T02:09:44;21.20;74.30
29663;DHT22;16578;53.266;7.920;2023-07-16T02:12:10;21.20;74.40
29663;DHT22;16578;53.266;7.920;2023-07-16T02:14:36;21.20;74.30
29663;DHT22;16578;53.266;7.920;2023-07-16T02:17:01;21.10;74.40
29663;DHT22;16578;53.266;7.920;2023-07-16T02:19:27;21.10;74.40
29663;DHT22;16578;53.266;7.920;2023-07-16T02:21:52;21.10;74.40
29663;DHT22;16578;53.266;7.920;2023-07-16T02:24:18;21.10;74.60
29663;DHT22;16578;53.266;7.920;2023-07-16T02:26:43;21.10;74.60
29663;DHT22;16578;53.266;7.920;2023-07-16T02:29:09;21.10;74.70
29663;DHT22;16578;53.266;7.920;2023-07-16T02:31:35;21.00;74.70
29663;DHT22;16578;53.266;7.920;2023-07-16T02:34:01;21.00;75.00
29663;DHT22;16578;53.266;7.920;2023-07-16T02:36:26;21.00;75.10
29663;DHT22;16578;53.266;7.920;2023-07-16T02:38:52;21.00;75.10
29663;DHT22;16578;53.266;7.920;2023-07-16T02:41:17;21.00;75.20
29663;DHT22;16578;53.266;7.920;2023-07-16T02:43:45;20.90;75.20
29663;DHT22;16578;53.266;7.920;2023-07-16T02:46:11;21.00;75.40
29663;DHT22;16578;53.266;7.920;2023-07-16T02:48:37;20.90;75.40
29663;DHT22;16578;53.266;7.920;2023-07-16T02:51:03;20.90;75.50
29663;DHT22;16578;53.266;7.920;2023-07-16T02:53:28;20.90;75.40
29663;DHT22;16578;53.266;7.920;2023-07-16T02:55:54;20.90;75.40
29663;DHT22;16578;53.266;7.920;2023-07-16T02:58:19;20.90;75.40
29663;DHT22;16578;53.266;7.920;2023-07-16T03:00:45;20.90;75.30
29663;DHT22;16578;53.266;7.920;2023-07-16T03:03:10;20.90;75.40
29663;DHT22;16578;53.266;7.920;2023-07-16T03:05:36;20.90;75.40
29663;DHT22;16578;53.266;7.920;2023-07-16T03:08:01;20.90;75.40
29663;DHT22;16578;53.266;7.920;2023-07-16T03:10:27;20.90;75.50
29663;DHT22;16578;53.266;7.920;2023-07-16T03:12:53;20.90;75.40
29663;DHT22;16578;53.266;7.920;2023-07-16T03:15:19;20.90;75.40
29663;DHT22;16578;53.266;7.920;2023-07-16T03:17:44;20.90;75.30
29663;DHT22;16578;53.266;7.920;2023-07-16T03:20:10;20.90;75.30
29663;DHT22;16578;53.266;7.920;2023-07-16T03:22:36;20.90;75.40
29663;DHT22;16578;53.266;7.920;2023-07-16T03:25:01;20.90;75.30
29663;DHT22;16578;53.266;7.920;2023-07-16T03:27:28;20.80;75.20
29663;DHT22;16578;53.266;7.920;2023-07-16T03:29:54;20.80;75.20
29663;DHT22;16578;53.266;7.920;2023-07-16T03:32:19;20.90;75.30
29663;DHT22;16578;53.266;7.920;2023-07-16T03:34:45;20.80;75.20
29663;DHT22;16578;53.266;7.920;2023-07-16T03:37:10;20.80;75.20
29663;DHT22;16578;53.266;7.920;2023-07-16T03:39:36;20.80;75.20
29663;DHT22;16578;53.266;7.920;2023-07-16T03:42:02;20.80;75.10
29663;DHT22;16578;53.266;7.920;2023-07-16T03:44:29;20.80;75.10
29663;DHT22;16578;53.266;7.920;2023-07-16T03:46:54;20.80;75.10
29663;DHT22;16578;53.266;7.920;2023-07-16T03:49:20;20.80;75.10
29663;DHT22;16578;53.266;7.920;2023-07-16T03:51:46;20.70;74.90
29663;DHT22;16578;53.266;7.920;2023-07-16T03:54:11;20.80;75.00
29663;DHT22;16578;53.266;7.920;2023-07-16T03:56:37;20.70;74.90
29663;DHT22;16578;53.266;7.920;2023-07-16T03:59:02;20.70;74.80
29663;DHT22;16578;53.266;7.920;2023-07-16T04:01:28;20.70;75.00
29663;DHT22;16578;53.266;7.920;2023-07-16T04:03:53;20.70;75.00
29663;DHT22;16578;53.266;7.920;2023-07-16T04:06:19;20.70;75.10
29663;DHT22;16578;53.266;7.920;2023-07-16T04:08:44;20.70;75.00
29663;DHT22;16578;53.266;7.920;2023-07-16T04:11:10;20.60;74.90
29663;DHT22;16578;53.266;7.920;2023-07-16T04:13:35;20.60;74.80
29663;DHT22;16578;53.266;7.920;2023-07-16T04:16:01;20.60;74.80
29663;DHT22;16578;53.266;7.920;2023-07-16T04:18:26;20.60;74.90
29663;DHT22;16578;53.266;7.920;2023-07-16T04:20:52;20.60;74.80
29663;DHT22;16578;53.266;7.920;2023-07-16T04:23:18;20.60;74.90
29663;DHT22;16578;53.266;7.920;2023-07-16T04:25:44;20.60;74.90
29663;DHT22;16578;53.266;7.920;2023-07-16T04:28:13;20.60;75.10
29663;DHT22;16578;53.266;7.920;2023-07-16T04:30:38;20.60;75.10
29663;DHT22;16578;53.266;7.920;2023-07-16T04:33:04;20.60;75.10
29663;DHT22;16578;53.266;7.920;2023-07-16T04:35:30;20.60;75.30
29663;DHT22;16578;53.266;7.920;2023-07-16T04:37:55;20.60;75.30
29663;DHT22;16578;53.266;7.920;2023-07-16T04:40:21;20.60;75.40
29663;DHT22;16578;53.266;7.920;2023-07-16T04:42:46;20.60;75.30
29663;DHT22;16578;53.266;7.920;2023-07-16T04:45:13;20.60;75.40
29663;DHT22;16578;53.266;7.920;2023-07-16T04:47:38;20.60;75.50
29663;DHT22;16578;53.266;7.920;2023-07-16T04:50:04;20.60;75.50
29663;DHT22;16578;53.266;7.920;2023-07-16T04:52:30;20.60;75.60
29663;DHT22;16578;53.266;7.920;2023-07-16T04:54:56;20.60;75.50
29663;DHT22;16578;53.266;7.920;2023-07-16T04:57:21;20.60;75.50
29663;DHT22;16578;53.266;7.920;2023-07-16T04:59:47;20.60;75.60
29663;DHT22;16578;53.266;7.920;2023-07-16T05:02:12;20.70;75.60
29663;DHT22;16578;53.266;7.920;2023-07-16T05:04:39;20.70;75.60
29663;DHT22;16578;53.266;7.920;2023-07-16T05:07:05;20.70;75.60
29663;DHT22;16578;53.266;7.920;2023-07-16T05:09:30;20.70;75.60
29663;DHT22;16578;53.266;7.920;2023-07-16T05:11:56;20.70;75.60
29663;DHT22;16578;53.266;7.920;2023-07-16T05:14:22;20.70;75.60
29663;DHT22;16578;53.266;7.920;2023-07-16T05:16:47;20.80;75.50
29663;DHT22;16578;53.266;7.920;2023-07-16T05:19:13;20.80;75.40
29663;DHT22;16578;53.266;7.920;2023-07-16T05:21:38;20.80;75.20
29663;DHT22;16578;53.266;7.920;2023-07-16T05:24:04;20.80;75.30
29663;DHT22;16578;53.266;7.920;2023-07-16T05:26:30;20.80;75.30
29663;DHT22;16578;53.266;7.920;2023-07-16T05:28:56;20.80;75.20
29663;DHT22;16578;53.266;7.920;2023-07-16T05:31:21;20.80;75.00
29663;DHT22;16578;53.266;7.920;2023-07-16T05:33:47;20.90;75.10
29663;DHT22;16578;53.266;7.920;2023-07-16T05:36:12;20.90;75.10
29663;DHT22;16578;53.266;7.920;2023-07-16T05:38:38;20.90;75.80
29663;DHT22;16578;53.266;7.920;2023-07-16T05:41:04;20.90;74.80
29663;DHT22;16578;53.266;7.920;2023-07-16T05:43:30;20.90;74.80
29663;DHT22;16578;53.266;7.920;2023-07-16T05:45:56;20.90;74.80
29663;DHT22;16578;53.266;7.920;2023-07-16T05:48:21;20.90;74.80
29663;DHT22;16578;53.266;7.920;2023-07-16T05:50:47;21.00;74.70
29663;DHT22;16578;53.266;7.920;2023-07-16T05:53:12;21.00;74.40
29663;DHT22;16578;53.266;7.920;2023-07-16T05:55:41;21.00;74.50
29663;DHT22;16578;53.266;7.920;2023-07-16T05:58:06;21.00;74.50
29663;DHT22;16578;53.266;7.920;2023-07-16T06:00:32;21.00;74.40
29663;DHT22;16578;53.266;7.920;2023-07-16T06:02:57;21.10;74.40
29663;DHT22;16578;53.266;7.920;2023-07-16T06:05:23;21.10;74.30
29663;DHT22;16578;53.266;7.920;2023-07-16T06:07:50;21.10;74.30
29663;DHT22;16578;53.266;7.920;2023-07-16T06:10:15;21.20;74.30
29663;DHT22;16578;53.266;7.920;2023-07-16T06:12:41;21.20;74.30
29663;DHT22;16578;53.266;7.920;2023-07-16T06:15:07;21.20;74.30
29663;DHT22;16578;53.266;7.920;2023-07-16T06:17:32;21.20;74.10
29663;DHT22;16578;53.266;7.920;2023-07-16T06:19:58;21.30;74.00
29663;DHT22;16578;53.266;7.920;2023-07-16T06:22:24;21.30;73.90
29663;DHT22;16578;53.266;7.920;2023-07-16T06:24:49;21.40;74.00
29663;DHT22;16578;53.266;7.920;2023-07-16T06:27:15;21.40;74.00
29663;DHT22;16578;53.266;7.920;2023-07-16T06:29:40;21.40;73.90
29663;DHT22;16578;53.266;7.920;2023-07-16T06:32:06;21.50;73.80
29663;DHT22;16578;53.266;7.920;2023-07-16T06:34:32;21.50;73.60
29663;DHT22;16578;53.266;7.920;2023-07-16T06:36:57;21.60;73.70
29663;DHT22;16578;53.266;7.920;2023-07-16T06:39:23;21.60;74.60
29663;DHT22;16578;53.266;7.920;2023-07-16T06:41:48;21.70;73.50
29663;DHT22;16578;53.266;7.920;2023-07-16T06:44:14;21.70;73.30
29663;DHT22;16578;53.266;7.920;2023-07-16T06:46:39;21.80;72.90
29663;DHT22;16578;53.266;7.920;2023-07-16T06:49:06;21.80;72.80
29663;DHT22;16578;53.266;7.920;2023-07-16T06:51:32;21.90;72.90
29663;DHT22;16578;53.266;7.920;2023-07-16T06:53:58;21.90;72.90
29663;DHT22;16578;53.266;7.920;2023-07-16T06:56:24;22.00;73.10
29663;DHT22;16578;53.266;7.920;2023-07-16T06:58:49;22.10;72.90
29663;DHT22;16578;53.266;7.920;2023-07-16T07:01:15;22.10;72.60
29663;DHT22;16578;53.266;7.920;2023-07-16T07:03:40;22.20;72.30
29663;DHT22;16578;53.266;7.920;2023-07-16T07:06:06;22.20;72.80
29663;DHT22;16578;53.266;7.920;2023-07-16T07:08:32;22.20;71.70
29663;DHT22;16578;53.266;7.920;2023-07-16T07:10:57;22.20;71.50
29663;DHT22;16578;53.266;7.920;2023-07-16T07:13:24;22.30;71.50
29663;DHT22;16578;53.266;7.920;2023-07-16T07:15:49;22.30;71.30
29663;DHT22;16578;53.266;7.920;2023-07-16T07:18:15;22.30;71.40
29663;DHT22;16578;53.266;7.920;2023-07-16T07:20:41;22.40;71.30
29663;DHT22;16578;53.266;7.920;2023-07-16T07:23:06;22.40;71.20
29663;DHT22;16578;53.266;7.920;2023-07-16T07:25:32;22.50;71.10
29663;DHT22;16578;53.266;7.920;2023-07-16T07:27:58;22.50;70.70
29663;DHT22;16578;53.266;7.920;2023-07-16T07:30:23;22.50;70.70
29663;DHT22;16578;53.266;7.920;2023-07-16T07:32:49;22.60;70.30
29663;DHT22;16578;53.266;7.920;2023-07-16T07:35:15;22.60;70.40
29663;DHT22;16578;53.266;7.920;2023-07-16T07:37:40;22.60;69.90
29663;DHT22;16578;53.266;7.920;2023-07-16T07:40:07;22.60;69.70
29663;DHT22;16578;53.266;7.920;2023-07-16T07:42:33;22.70;69.60
29663;DHT22;16578;53.266;7.920;2023-07-16T07:44:58;22.70;69.40
29663;DHT22;16578;53.266;7.920;2023-07-16T07:47:24;22.70;69.30
29663;DHT22;16578;53.266;7.920;2023-07-16T07:49:52;22.70;69.70
29663;DHT22;16578;53.266;7.920;2023-07-16T07:52:17;22.80;69.80
29663;DHT22;16578;53.266;7.920;2023-07-16T07:54:43;22.80;69.70
29663;DHT22;16578;53.266;7.920;2023-07-16T07:57:08;22.80;69.50
29663;DHT22;16578;53.266;7.920;2023-07-16T07:59:34;22.90;69.40
29663;DHT22;16578;53.266;7.920;2023-07-16T08:01:59;23.00;69.30
29663;DHT22;16578;53.266;7.920;2023-07-16T08:04:27;23.00;68.80
29663;DHT22;16578;53.266;7.920;2023-07-16T08:06:53;23.00;68.20
29663;DHT22;16578;53.266;7.920;2023-07-16T08:09:19;23.10;67.90
29663;DHT22;16578;53.266;7.920;2023-07-16T08:11:44;23.10;67.90
29663;DHT22;16578;53.266;7.920;2023-07-16T08:14:10;23.20;68.00
29663;DHT22;16578;53.266;7.920;2023-07-16T08:16:35;23.20;67.90
29663;DHT22;16578;53.266;7.920;2023-07-16T08:19:01;23.20;67.40
29663;DHT22;16578;53.266;7.920;2023-07-16T08:21:26;23.20;67.10
29663;DHT22;16578;53.266;7.920;2023-07-16T08:23:52;23.30;67.50
29663;DHT22;16578;53.266;7.920;2023-07-16T08:26:18;23.30;67.30
29663;DHT22;16578;53.266;7.920;2023-07-16T08:28:43;23.30;66.90
29663;DHT22;16578;53.266;7.920;2023-07-16T08:31:12;23.40;66.90
29663;DHT22;16578;53.266;7.920;2023-07-16T08:33:39;23.50;67.00
29663;DHT22;16578;53.266;7.920;2023-07-16T08:36:04;23.50;67.20
29663;DHT22;16578;53.266;7.920;2023-07-16T08:38:30;23.60;67.20
29663;DHT22;16578;53.266;7.920;2023-07-16T08:40:56;23.60;66.50
29663;DHT22;16578;53.266;7.920;2023-07-16T08:43:21;23.60;66.20
29663;DHT22;16578;53.266;7.920;2023-07-16T08:45:49;23.60;65.70
29663;DHT22;16578;53.266;7.920;2023-07-16T08:48:16;23.70;66.10
29663;DHT22;16578;53.266;7.920;2023-07-16T08:50:47;23.70;65.60
29663;DHT22;16578;53.266;7.920;2023-07-16T08:53:14;23.80;65.20
29663;DHT22;16578;53.266;7.920;2023-07-16T08:55:40;23.80;65.10
29663;DHT22;16578;53.266;7.920;2023-07-16T08:58:06;23.80;65.30
29663;DHT22;16578;53.266;7.920;2023-07-16T09:00:32;23.80;64.90
29663;DHT22;16578;53.266;7.920;2023-07-16T09:02:58;23.80;64.60
29663;DHT22;16578;53.266;7.920;2023-07-16T09:05:24;23.80;64.60
29663;DHT22;16578;53.266;7.920;2023-07-16T09:07:50;23.80;64.50
29663;DHT22;16578;53.266;7.920;2023-07-16T09:10:16;23.90;64.30
29663;DHT22;16578;53.266;7.920;2023-07-16T09:12:45;23.90;63.90
29663;DHT22;16578;53.266;7.920;2023-07-16T09:15:13;23.90;63.50
29663;DHT22;16578;53.266;7.920;2023-07-16T09:17:41;23.90;63.50
29663;DHT22;16578;53.266;7.920;2023-07-16T09:20:07;23.90;63.40
29663;DHT22;16578;53.266;7.920;2023-07-16T09:22:34;23.90;63.30
29663;DHT22;16578;53.266;7.920;2023-07-16T09:25:01;23.90;63.00
29663;DHT22;16578;53.266;7.920;2023-07-16T09:27:31;23.90;63.30
29663;DHT22;16578;53.266;7.920;2023-07-16T09:29:56;23.90;63.50
29663;DHT22;16578;53.266;7.920;2023-07-16T09:32:22;23.80;63.20
29663;DHT22;16578;53.266;7.920;2023-07-16T09:34:51;23.80;63.00
29663;DHT22;16578;53.266;7.920;2023-07-16T09:37:18;23.80;62.80
29663;DHT22;16578;53.266;7.920;2023-07-16T09:39:46;23.80;63.10
29663;DHT22;16578;53.266;7.920;2023-07-16T09:42:12;23.80;62.80
29663;DHT22;16578;53.266;7.920;2023-07-16T09:44:39;23.70;63.50
29663;DHT22;16578;53.266;7.920;2023-07-16T09:47:06;23.70;63.50
29663;DHT22;16578;53.266;7.920;2023-07-16T09:49:32;23.70;63.40
29663;DHT22;16578;53.266;7.920;2023-07-16T09:51:58;23.70;63.00
29663;DHT22;16578;53.266;7.920;2023-07-16T09:54:25;23.70;63.40
29663;DHT22;16578;53.266;7.920;2023-07-16T09:56:55;23.70;63.40
29663;DHT22;16578;53.266;7.920;2023-07-16T09:59:25;23.70;63.30
29663;DHT22;16578;53.266;7.920;2023-07-16T10:01:52;23.70;63.10
29663;DHT22;16578;53.266;7.920;2023-07-16T10:04:19;23.70;63.20
29663;DHT22;16578;53.266;7.920;2023-07-16T10:06:54;23.80;63.30
29663;DHT22;16578;53.266;7.920;2023-07-16T10:09:41;23.80;63.10
29663;DHT22;16578;53.266;7.920;2023-07-16T10:12:27;23.80;62.50
29663;DHT22;16578;53.266;7.920;2023-07-16T10:14:55;23.80;63.10
29663;DHT22;16578;53.266;7.920;2023-07-16T10:17:24;23.90;63.30
29663;DHT22;16578;53.266;7.920;2023-07-16T10:22:46;23.90;62.60
29663;DHT22;16578;53.266;7.920;2023-07-16T10:27:47;24.00;63.00
29663;DHT22;16578;53.266;7.920;2023-07-16T10:30:13;24.00;63.00
29663;DHT22;16578;53.266;7.920;2023-07-16T10:32:39;24.10;62.60
29663;DHT22;16578;53.266;7.920;2023-07-16T10:35:06;24.10;62.20
29663;DHT22;16578;53.266;7.920;2023-07-16T10:37:32;24.10;62.50
29663;DHT22;16578;53.266;7.920;2023-07-16T10:39:59;24.10;62.60
29663;DHT22;16578;53.266;7.920;2023-07-16T10:42:26;24.20;62.50
29663;DHT22;16578;53.266;7.920;2023-07-16T10:44:54;24.20;62.40
29663;DHT22;16578;53.266;7.920;2023-07-16T10:47:23;24.20;61.90
29663;DHT22;16578;53.266;7.920;2023-07-16T10:49:50;24.20;61.40
29663;DHT22;16578;53.266;7.920;2023-07-16T10:52:17;24.30;61.50
29663;DHT22;16578;53.266;7.920;2023-07-16T10:54:43;24.30;61.50
29663;DHT22;16578;53.266;7.920;2023-07-16T10:57:10;24.20;61.20
29663;DHT22;16578;53.266;7.920;2023-07-16T10:59:38;24.30;61.40
29663;DHT22;16578;53.266;7.920;2023-07-16T11:02:09;24.20;61.60
29663;DHT22;16578;53.266;7.920;2023-07-16T11:04:35;24.30;61.90
29663;DHT22;16578;53.266;7.920;2023-07-16T11:07:08;24.30;62.30
29663;DHT22;16578;53.266;7.920;2023-07-16T11:09:41;24.40;61.90
29663;DHT22;16578;53.266;7.920;2023-07-16T11:12:09;24.40;61.90
29663;DHT22;16578;53.266;7.920;2023-07-16T11:14:35;24.40;61.90
29663;DHT22;16578;53.266;7.920;2023-07-16T11:17:08;24.50;61.40
29663;DHT22;16578;53.266;7.920;2023-07-16T11:19:34;24.60;60.80
29663;DHT22;16578;53.266;7.920;2023-07-16T11:22:02;24.50;60.70
29663;DHT22;16578;53.266;7.920;2023-07-16T11:24:28;24.60;60.60
29663;DHT22;16578;53.266;7.920;2023-07-16T11:26:54;24.60;60.50
29663;DHT22;16578;53.266;7.920;2023-07-16T11:29:23;24.60;60.00
29663;DHT22;16578;53.266;7.920;2023-07-16T11:31:50;24.60;60.10
29663;DHT22;16578;53.266;7.920;2023-07-16T11:34:16;24.60;60.20
29663;DHT22;16578;53.266;7.920;2023-07-16T11:36:42;24.60;60.30
29663;DHT22;16578;53.266;7.920;2023-07-16T11:39:10;24.60;60.00
29663;DHT22;16578;53.266;7.920;2023-07-16T11:41:37;24.60;60.00
29663;DHT22;16578;53.266;7.920;2023-07-16T11:44:02;24.70;60.10
29663;DHT22;16578;53.266;7.920;2023-07-16T11:46:32;24.70;59.90
29663;DHT22;16578;53.266;7.920;2023-07-16T11:49:01;24.70;59.50
29663;DHT22;16578;53.266;7.920;2023-07-16T11:51:27;24.80;59.60
29663;DHT22;16578;53.266;7.920;2023-07-16T11:53:55;24.80;59.60
29663;DHT22;16578;53.266;7.920;2023-07-16T11:56:20;24.80;59.10
29663;DHT22;16578;53.266;7.920;2023-07-16T11:58:47;24.80;59.40
29663;DHT22;16578;53.266;7.920;2023-07-16T12:01:12;24.80;59.40
29663;DHT22;16578;53.266;7.920;2023-07-16T12:03:40;24.80;59.10
29663;DHT22;16578;53.266;7.920;2023-07-16T12:06:05;24.80;58.90
29663;DHT22;16578;53.266;7.920;2023-07-16T12:08:31;24.80;58.70
29663;DHT22;16578;53.266;7.920;2023-07-16T12:10:56;24.80;58.70
29663;DHT22;16578;53.266;7.920;2023-07-16T12:13:22;24.70;58.40
29663;DHT22;16578;53.266;7.920;2023-07-16T12:15:48;24.70;58.50
29663;DHT22;16578;53.266;7.920;2023-07-16T12:18:13;24.60;58.60
29663;DHT22;16578;53.266;7.920;2023-07-16T12:20:39;24.60;58.90
29663;DHT22;16578;53.266;7.920;2023-07-16T12:23:07;24.60;58.80
29663;DHT22;16578;53.266;7.920;2023-07-16T12:25:33;24.60;59.00
29663;DHT22;16578;53.266;7.920;2023-07-16T12:28:00;24.60;58.90
29663;DHT22;16578;53.266;7.920;2023-07-16T12:30:27;24.60;58.80
29663;DHT22;16578;53.266;7.920;2023-07-16T12:32:52;24.60;59.40
29663;DHT22;16578;53.266;7.920;2023-07-16T12:35:18;24.60;58.90
29663;DHT22;16578;53.266;7.920;2023-07-16T12:37:43;24.60;58.80
29663;DHT22;16578;53.266;7.920;2023-07-16T12:40:09;24.60;58.70
29663;DHT22;16578;53.266;7.920;2023-07-16T12:42:35;24.60;58.50
29663;DHT22;16578;53.266;7.920;2023-07-16T12:45:01;24.60;58.60
29663;DHT22;16578;53.266;7.920;2023-07-16T12:47:27;24.60;58.60
29663;DHT22;16578;53.266;7.920;2023-07-16T12:49:52;24.60;58.60
29663;DHT22;16578;53.266;7.920;2023-07-16T12:52:18;24.60;58.80
29663;DHT22;16578;53.266;7.920;2023-07-16T12:54:43;24.60;58.80
29663;DHT22;16578;53.266;7.920;2023-07-16T12:57:09;24.60;58.80
29663;DHT22;16578;53.266;7.920;2023-07-16T12:59:34;24.60;58.90
29663;DHT22;16578;53.266;7.920;2023-07-16T13:02:00;24.60;59.10
29663;DHT22;16578;53.266;7.920;2023-07-16T13:04:25;24.60;59.00
29663;DHT22;16578;53.266;7.920;2023-07-16T13:06:52;24.60;59.20
29663;DHT22;16578;53.266;7.920;2023-07-16T13:09:17;24.60;59.20
29663;DHT22;16578;53.266;7.920;2023-07-16T13:11:43;24.60;59.50
29663;DHT22;16578;53.266;7.920;2023-07-16T13:14:09;24.60;59.50
29663;DHT22;16578;53.266;7.920;2023-07-16T13:16:34;24.60;59.90
29663;DHT22;16578;53.266;7.920;2023-07-16T13:19:00;24.70;59.60
29663;DHT22;16578;53.266;7.920;2023-07-16T13:21:25;24.70;59.60
29663;DHT22;16578;53.266;7.920;2023-07-16T13:23:51;24.70;59.40
29663;DHT22;16578;53.266;7.920;2023-07-16T13:26:17;24.80;59.60
29663;DHT22;16578;53.266;7.920;2023-07-16T13:28:42;24.80;59.50
29663;DHT22;16578;53.266;7.920;2023-07-16T13:31:08;24.80;59.30
29663;DHT22;16578;53.266;7.920;2023-07-16T13:33:33;24.90;59.30
29663;DHT22;16578;53.266;7.920;2023-07-16T13:36:00;24.90;59.10
29663;DHT22;16578;53.266;7.920;2023-07-16T13:38:28;25.00;59.20
29663;DHT22;16578;53.266;7.920;2023-07-16T13:40:54;25.00;59.20
29663;DHT22;16578;53.266;7.920;2023-07-16T13:43:19;25.00;58.80
29663;DHT22;16578;53.266;7.920;2023-07-16T13:45:45;25.00;58.60
29663;DHT22;16578;53.266;7.920;2023-07-16T13:48:10;25.00;58.60
29663;DHT22;16578;53.266;7.920;2023-07-16T13:50:36;25.00;58.50
29663;DHT22;16578;53.266;7.920;2023-07-16T13:53:01;25.00;58.20
29663;DHT22;16578;53.266;7.920;2023-07-16T13:55:27;25.00;58.20
29663;DHT22;16578;53.266;7.920;2023-07-16T13:57:53;25.00;58.30
29663;DHT22;16578;53.266;7.920;2023-07-16T14:00:21;25.00;58.60
29663;DHT22;16578;53.266;7.920;2023-07-16T14:02:47;25.00;58.40
29663;DHT22;16578;53.266;7.920;2023-07-16T14:05:12;25.00;58.70
29663;DHT22;16578;53.266;7.920;2023-07-16T14:07:38;25.00;58.70
29663;DHT22;16578;53.266;7.920;2023-07-16T14:10:04;25.00;58.70
29663;DHT22;16578;53.266;7.920;2023-07-16T14:12:30;25.00;58.80
29663;DHT22;16578;53.266;7.920;2023-07-16T14:14:55;25.00;58.80
29663;DHT22;16578;53.266;7.920;2023-07-16T14:17:21;25.00;58.70
29663;DHT22;16578;53.266;7.920;2023-07-16T14:19:47;25.00;58.80
29663;DHT22;16578;53.266;7.920;2023-07-16T14:22:12;25.00;58.90
29663;DHT22;16578;53.266;7.920;2023-07-16T14:24:39;25.10;58.40
29663;DHT22;16578;53.266;7.920;2023-07-16T14:27:06;25.10;58.10
29663;DHT22;16578;53.266;7.920;2023-07-16T14:29:32;25.10;58.10
29663;DHT22;16578;53.266;7.920;2023-07-16T14:31:58;25.00;57.90
29663;DHT22;16578;53.266;7.920;2023-07-16T14:34:25;25.00;58.00
29663;DHT22;16578;53.266;7.920;2023-07-16T14:36:52;25.00;57.90
29663;DHT22;16578;53.266;7.920;2023-07-16T14:39:17;25.00;58.00
29663;DHT22;16578;53.266;7.920;2023-07-16T14:41:43;25.00;58.20
29663;DHT22;16578;53.266;7.920;2023-07-16T14:44:08;25.00;58.20
29663;DHT22;16578;53.266;7.920;2023-07-16T14:46:34;25.00;58.20
29663;DHT22;16578;53.266;7.920;2023-07-16T14:49:00;25.00;58.40
29663;DHT22;16578;53.266;7.920;2023-07-16T14:51:26;25.00;58.20
29663;DHT22;16578;53.266;7.920;2023-07-16T14:53:52;25.00;58.20
29663;DHT22;16578;53.266;7.920;2023-07-16T14:56:18;25.10;58.20
29663;DHT22;16578;53.266;7.920;2023-07-16T14:58:43;25.00;58.20
29663;DHT22;16578;53.266;7.920;2023-07-16T15:01:10;25.00;58.30
29663;DHT22;16578;53.266;7.920;2023-07-16T15:03:36;25.10;58.60
29663;DHT22;16578;53.266;7.920;2023-07-16T15:06:02;25.00;59.10
29663;DHT22;16578;53.266;7.920;2023-07-16T15:08:28;25.10;58.30
29663;DHT22;16578;53.266;7.920;2023-07-16T15:10:57;25.10;58.30
29663;DHT22;16578;53.266;7.920;2023-07-16T15:13:23;25.00;58.70
29663;DHT22;16578;53.266;7.920;2023-07-16T15:15:51;25.00;58.40
29663;DHT22;16578;53.266;7.920;2023-07-16T15:18:18;25.10;58.50
29663;DHT22;16578;53.266;7.920;2023-07-16T15:20:45;25.10;58.40
29663;DHT22;16578;53.266;7.920;2023-07-16T15:23:11;25.10;58.20
29663;DHT22;16578;53.266;7.920;2023-07-16T15:25:37;25.10;59.10
29663;DHT22;16578;53.266;7.920;2023-07-16T15:28:02;25.10;60.00
29663;DHT22;16578;53.266;7.920;2023-07-16T15:30:28;25.00;60.90